sensor_id;sensor_type;location;lat;lon;timestamp;pressure;altitude;pressure_sealevel;temperature;humidity
82476;BME280;72099;43.176;76.872;2023-08-12T00:02:46;89392.81;;;25.07;41.71
82476;BME280;72099;43.176;76.872;2023-08-12T00:05:47;89395.50;;;25.07;41.78
82476;BME280;72099;43.176;76.872;2023-08-12T00:08:48;89400.88;;;25.07;41.75
82476;BME280;72099;43.176;76.872;2023-08-12T00:11:48;89400.13;;;25.06;41.76
82476;BME280;72099;43.176;76.872;2023-08-12T00:14:49;89402.06;;;25.06;41.57
82476;BME280;72099;43.176;76.872;2023-08-12T00:17:50;89407.44;;;25.06;41.50
82476;BME280;72099;43.176;76.872;2023-08-12T00:20:51;89409.81;;;25.04;41.72
82476;BME280;72099;43.176;76.872;2023-08-12T00:23:51;89412.06;;;25.05;41.71
82476;BME280;72099;43.176;76.872;2023-08-12T00:26:52;89413.28;;;25.04;41.56
82476;BME280;72099;43.176;76.872;2023-08-12T00:29:53;89417.91;;;25.04;41.58
82476;BME280;72099;43.176;76.872;2023-08-12T00:32:54;89416.72;;;25.05;41.59
82476;BME280;72099;43.176;76.872;2023-08-12T00:35:55;89417.91;;;25.04;41.37
82476;BME280;72099;43.176;76.872;2023-08-12T00:38:55;89420.59;;;25.04;41.64
82476;BME280;72099;43.176;76.872;2023-08-12T00:41:56;89411.78;;;25.03;41.25
82476;BME280;72099;43.176;76.872;2023-08-12T00:44:57;89418.34;;;25.02;41.54
82476;BME280;72099;43.176;76.872;2023-08-12T00:47:58;89422.53;;;25.03;41.38
82476;BME280;72099;43.176;76.872;2023-08-12T00:50:59;89415.41;;;24.96;41.44
82476;BME280;72099;43.176;76.872;2023-08-12T00:54:02;89421.78;;;25.03;41.40
82476;BME280;72099;43.176;76.872;2023-08-12T00:57:05;89419.09;;;25.03;41.61
82476;BME280;72099;43.176;76.872;2023-08-12T01:00:07;89408.78;;;25.01;41.55
82476;BME280;72099;43.176;76.872;2023-08-12T01:03:08;89412.97;;;25.02;41.68
82476;BME280;72099;43.176;76.872;2023-08-12T01:06:09;89417.16;;;25.03;41.57
82476;BME280;72099;43.176;76.872;2023-08-12T01:09:10;89410.28;;;25.02;41.47
82476;BME280;72099;43.176;76.872;2023-08-12T01:12:22;89399.50;;;25.02;41.79
82476;BME280;72099;43.176;76.872;2023-08-12T01:15:24;89408.78;;;25.01;41.73
82476;BME280;72099;43.176;76.872;2023-08-12T01:18:27;89403.03;;;24.99;42.20
82476;BME280;72099;43.176;76.872;2023-08-12T01:21:29;89410.28;;;25.02;41.99
82476;BME280;72099;43.176;76.872;2023-08-12T01:24:36;89405.63;;;25.03;42.21
82476;BME280;72099;43.176;76.872;2023-08-12T01:27:37;89404.88;;;25.02;42.20
82476;BME280;72099;43.176;76.872;2023-08-12T01:30:59;89414.03;;;25.05;42.07
82476;BME280;72099;43.176;76.872;2023-08-12T01:34:26;89421.34;;;25.04;42.19
82476;BME280;72099;43.176;76.872;2023-08-12T01:37:29;89420.16;;;25.05;42.43
82476;BME280;72099;43.176;76.872;2023-08-12T01:40:31;89419.41;;;25.05;42.20
82476;BME280;72099;43.176;76.872;2023-08-12T01:43:33;89421.34;;;25.04;42.30
82476;BME280;72099;43.176;76.872;2023-08-12T01:46:34;89424.78;;;25.05;42.42
82476;BME280;72099;43.176;76.872;2023-08-12T01:49:34;89431.66;;;25.06;42.42
82476;BME280;72099;43.176;76.872;2023-08-12T01:52:35;89427.91;;;25.03;42.54
82476;BME280;72099;43.176;76.872;2023-08-12T01:55:36;89421.78;;;25.03;42.64
82476;BME280;72099;43.176;76.872;2023-08-12T01:58:37;89430.16;;;25.05;43.07
82476;BME280;72099;43.176;76.872;2023-08-12T02:01:37;89430.47;;;25.07;42.89
82476;BME280;72099;43.176;76.872;2023-08-12T02:04:40;89435.84;;;25.07;43.00
82476;BME280;72099;43.176;76.872;2023-08-12T02:07:41;89427.78;;;25.07;43.07
82476;BME280;72099;43.176;76.872;2023-08-12T02:10:41;89436.59;;;25.07;43.06
82476;BME280;72099;43.176;76.872;2023-08-12T02:13:42;89429.28;;;25.08;43.33
82476;BME280;72099;43.176;76.872;2023-08-12T02:16:43;89433.47;;;25.09;43.47
82476;BME280;72099;43.176;76.872;2023-08-12T02:19:44;89429.59;;;25.10;43.48
82476;BME280;72099;43.176;76.872;2023-08-12T02:22:44;89439.16;;;25.11;43.76
82476;BME280;72099;43.176;76.872;2023-08-12T02:25:46;89391.41;;;24.80;43.70
82476;BME280;72099;43.176;76.872;2023-08-12T02:28:47;89433.78;;;25.11;44.10
82476;BME280;72099;43.176;76.872;2023-08-12T02:31:48;89435.63;;;25.14;44.56
82476;BME280;72099;43.176;76.872;2023-08-12T02:34:48;89433.69;;;25.14;44.55
82476;BME280;72099;43.176;76.872;2023-08-12T02:37:49;89435.19;;;25.15;44.75
82476;BME280;72099;43.176;76.872;2023-08-12T02:40:50;89425.16;;;25.16;44.88
82476;BME280;72099;43.176;76.872;2023-08-12T02:43:51;89426.66;;;25.17;44.84
82476;BME280;72099;43.176;76.872;2023-08-12T02:46:52;89432.34;;;25.19;45.05
82476;BME280;72099;43.176;76.872;2023-08-12T02:49:52;89430.41;;;25.19;45.12
82476;BME280;72099;43.176;76.872;2023-08-12T02:52:53;89428.47;;;25.20;45.02
82476;BME280;72099;43.176;76.872;2023-08-12T02:55:54;89425.34;;;25.21;45.30
82476;BME280;72099;43.176;76.872;2023-08-12T02:58:55;89428.47;;;25.20;45.29
82476;BME280;72099;43.176;76.872;2023-08-12T03:01:55;89428.34;;;25.23;45.53
82476;BME280;72099;43.176;76.872;2023-08-12T03:04:56;89426.38;;;25.24;45.46
82476;BME280;72099;43.176;76.872;2023-08-12T03:07:57;89429.38;;;25.26;45.84
82476;BME280;72099;43.176;76.872;2023-08-12T03:11:02;89421.31;;;25.26;45.63
82476;BME280;72099;43.176;76.872;2023-08-12T03:14:03;89431.22;;;25.29;45.80
82476;BME280;72099;43.176;76.872;2023-08-12T03:17:03;89419.25;;;25.30;45.77
82476;BME280;72099;43.176;76.872;2023-08-12T03:20:06;89428.41;;;25.33;45.73
82476;BME280;72099;43.176;76.872;2023-08-12T03:23:09;89419.56;;;25.32;45.72
82476;BME280;72099;43.176;76.872;2023-08-12T03:26:09;89418.69;;;25.35;45.83
82476;BME280;72099;43.176;76.872;2023-08-12T03:29:11;89415.25;;;25.35;45.42
82476;BME280;72099;43.176;76.872;2023-08-12T03:32:12;89421.69;;;25.37;45.42
82476;BME280;72099;43.176;76.872;2023-08-12T03:35:12;89416.00;;;25.35;45.25
82476;BME280;72099;43.176;76.872;2023-08-12T03:38:13;89420.94;;;25.37;45.07
82476;BME280;72099;43.176;76.872;2023-08-12T03:41:14;89421.69;;;25.37;44.98
82476;BME280;72099;43.176;76.872;2023-08-12T03:44:15;89413.28;;;25.35;44.78
82476;BME280;72099;43.176;76.872;2023-08-12T03:47:16;89419.00;;;25.37;44.55
82476;BME280;72099;43.176;76.872;2023-08-12T03:50:22;89420.50;;;25.38;44.23
82476;BME280;72099;43.176;76.872;2023-08-12T03:53:22;89407.78;;;25.39;44.03
82476;BME280;72099;43.176;76.872;2023-08-12T03:56:23;89409.72;;;25.38;43.91
82476;BME280;72099;43.176;76.872;2023-08-12T03:59:24;89411.25;;;25.39;43.56
82476;BME280;72099;43.176;76.872;2023-08-12T04:02:25;89402.38;;;25.39;43.25
82476;BME280;72099;43.176;76.872;2023-08-12T04:05:25;89402.09;;;25.37;42.78
82476;BME280;72099;43.176;76.872;2023-08-12T04:08:26;89394.16;;;25.33;42.96
82476;BME280;72099;43.176;76.872;2023-08-12T04:11:27;89393.84;;;25.31;42.70
82476;BME280;72099;43.176;76.872;2023-08-12T04:14:28;89404.03;;;25.36;42.72
82476;BME280;72099;43.176;76.872;2023-08-12T04:17:28;89402.53;;;25.35;42.67
82476;BME280;72099;43.176;76.872;2023-08-12T04:20:29;89408.22;;;25.37;42.40
82476;BME280;72099;43.176;76.872;2023-08-12T04:23:30;89400.28;;;25.34;42.39
82476;BME280;72099;43.176;76.872;2023-08-12T04:26:31;89403.59;;;25.38;42.07
82476;BME280;72099;43.176;76.872;2023-08-12T04:29:32;89397.00;;;25.39;41.86
82476;BME280;72099;43.176;76.872;2023-08-12T04:32:33;89394.31;;;25.39;41.69
82476;BME280;72099;43.176;76.872;2023-08-12T04:35:33;89389.38;;;25.37;41.75
82476;BME280;72099;43.176;76.872;2023-08-12T04:38:34;89386.56;;;25.41;42.07
82476;BME280;72099;43.176;76.872;2023-08-12T04:41:36;89389.56;;;25.43;41.91
82476;BME280;72099;43.176;76.872;2023-08-12T04:44:38;89390.19;;;25.47;41.73
82476;BME280;72099;43.176;76.872;2023-08-12T04:47:39;89391.97;;;25.50;42.03
82476;BME280;72099;43.176;76.872;2023-08-12T04:50:42;89391.53;;;25.51;42.17
82476;BME280;72099;43.176;76.872;2023-08-12T04:53:43;89389.91;;;25.54;42.20
82476;BME280;72099;43.176;76.872;2023-08-12T04:56:43;89380.66;;;25.55;42.73
82476;BME280;72099;43.176;76.872;2023-08-12T04:59:44;89385.75;;;25.62;43.12
82476;BME280;72099;43.176;76.872;2023-08-12T05:02:45;89377.97;;;25.64;43.44
82476;BME280;72099;43.176;76.872;2023-08-12T05:05:52;89377.09;;;25.67;43.82
82476;BME280;72099;43.176;76.872;2023-08-12T05:08:53;89383.56;;;25.70;43.88
82476;BME280;72099;43.176;76.872;2023-08-12T05:11:54;89389.25;;;25.72;44.12
82476;BME280;72099;43.176;76.872;2023-08-12T05:14:54;89382.69;;;25.73;44.28
82476;BME280;72099;43.176;76.872;2023-08-12T05:17:55;89388.38;;;25.75;44.37
82476;BME280;72099;43.176;76.872;2023-08-12T05:20:56;89392.13;;;25.77;44.42
82476;BME280;72099;43.176;76.872;2023-08-12T05:23:58;89383.63;;;25.79;44.44
82476;BME280;72099;43.176;76.872;2023-08-12T05:26:58;89373.59;;;25.79;44.62
82476;BME280;72099;43.176;76.872;2023-08-12T05:30:01;89384.22;;;25.83;44.46
82476;BME280;72099;43.176;76.872;2023-08-12T05:33:02;89382.56;;;25.85;44.41
82476;BME280;72099;43.176;76.872;2023-08-12T05:36:03;89373.91;;;25.91;44.40
82476;BME280;72099;43.176;76.872;2023-08-12T05:39:04;89366.44;;;25.95;44.64
82476;BME280;72099;43.176;76.872;2023-08-12T05:42:05;89369.75;;;25.99;44.76
82476;BME280;72099;43.176;76.872;2023-08-12T05:45:06;89368.09;;;26.01;45.00
82476;BME280;72099;43.176;76.872;2023-08-12T05:48:08;89363.00;;;26.03;45.24
82476;BME280;72099;43.176;76.872;2023-08-12T05:51:08;89360.19;;;26.07;45.37
82476;BME280;72099;43.176;76.872;2023-08-12T05:54:10;89359.88;;;26.14;45.67
82476;BME280;72099;43.176;76.872;2023-08-12T05:57:11;89357.66;;;26.22;45.65
82476;BME280;72099;43.176;76.872;2023-08-12T06:00:12;89358.25;;;26.26;45.16
82476;BME280;72099;43.176;76.872;2023-08-12T06:03:13;89352.88;;;26.35;44.35
82476;BME280;72099;43.176;76.872;2023-08-12T06:06:13;89348.13;;;26.39;42.92
82476;BME280;72099;43.176;76.872;2023-08-12T06:09:14;89340.94;;;26.45;42.62
82476;BME280;72099;43.176;76.872;2023-08-12T06:12:15;89350.66;;;26.52;41.72
82476;BME280;72099;43.176;76.872;2023-08-12T06:15:16;89349.31;;;26.56;41.33
82476;BME280;72099;43.176;76.872;2023-08-12T06:18:16;89355.16;;;26.64;41.18
82476;BME280;72099;43.176;76.872;2023-08-12T06:21:17;89350.50;;;26.64;41.64
82476;BME280;72099;43.176;76.872;2023-08-12T06:24:18;89348.28;;;26.63;41.88
82476;BME280;72099;43.176;76.872;2023-08-12T06:27:19;89346.47;;;26.60;42.24
82476;BME280;72099;43.176;76.872;2023-08-12T06:30:21;89356.22;;;26.57;42.80
82476;BME280;72099;43.176;76.872;2023-08-12T06:33:21;89349.00;;;26.54;42.34
82476;BME280;72099;43.176;76.872;2023-08-12T06:36:22;89347.97;;;26.52;42.49
82476;BME280;72099;43.176;76.872;2023-08-12T06:39:23;89343.03;;;26.50;42.40
82476;BME280;72099;43.176;76.872;2023-08-12T06:42:24;89358.63;;;26.46;42.21
82476;BME280;72099;43.176;76.872;2023-08-12T06:45:25;89356.50;;;26.41;42.20
82476;BME280;72099;43.176;76.872;2023-08-12T06:48:25;89369.97;;;26.41;41.89
82476;BME280;72099;43.176;76.872;2023-08-12T06:51:26;89374.19;;;26.42;41.58
82476;BME280;72099;43.176;76.872;2023-08-12T06:54:27;89368.34;;;26.43;41.90
82476;BME280;72099;43.176;76.872;2023-08-12T06:57:28;89369.41;;;26.46;41.92
82476;BME280;72099;43.176;76.872;2023-08-12T07:00:28;89363.72;;;26.44;41.63
82476;BME280;72099;43.176;76.872;2023-08-12T07:03:29;89359.19;;;26.41;41.67
82476;BME280;72099;43.176;76.872;2023-08-12T07:06:30;89356.94;;;26.39;41.96
82476;BME280;72099;43.176;76.872;2023-08-12T07:09:31;89344.66;;;26.38;41.74
82476;BME280;72099;43.176;76.872;2023-08-12T07:12:32;89349.75;;;26.36;41.66
82476;BME280;72099;43.176;76.872;2023-08-12T07:15:33;89360.22;;;26.34;41.49
82476;BME280;72099;43.176;76.872;2023-08-12T07:18:34;89356.91;;;26.30;41.73
82476;BME280;72099;43.176;76.872;2023-08-12T07:21:34;89366.19;;;26.29;41.51
82476;BME280;72099;43.176;76.872;2023-08-12T07:24:36;89365.91;;;26.27;41.82
82476;BME280;72099;43.176;76.872;2023-08-12T07:27:36;89347.75;;;26.09;41.70
82476;BME280;72099;43.176;76.872;2023-08-12T07:30:37;89368.75;;;26.24;41.40
82476;BME280;72099;43.176;76.872;2023-08-12T07:33:38;89368.00;;;26.23;41.79
82476;BME280;72099;43.176;76.872;2023-08-12T07:36:40;89381.78;;;26.25;41.35
82476;BME280;72099;43.176;76.872;2023-08-12T07:39:41;89376.22;;;26.29;41.07
82476;BME280;72099;43.176;76.872;2023-08-12T07:42:41;89377.31;;;26.31;41.31
82476;BME280;72099;43.176;76.872;2023-08-12T07:45:42;89372.50;;;26.35;40.87
82476;BME280;72099;43.176;76.872;2023-08-12T07:48:43;89381.22;;;26.39;40.92
82476;BME280;72099;43.176;76.872;2023-08-12T07:51:43;89374.81;;;26.46;41.03
82476;BME280;72099;43.176;76.872;2023-08-12T07:54:44;89367.31;;;26.50;40.22
82476;BME280;72099;43.176;76.872;2023-08-12T07:57:45;89356.34;;;26.54;40.00
82476;BME280;72099;43.176;76.872;2023-08-12T08:00:46;89359.34;;;26.56;39.75
82476;BME280;72099;43.176;76.872;2023-08-12T08:03:47;89361.47;;;26.61;39.47
82476;BME280;72099;43.176;76.872;2023-08-12T08:06:47;89361.31;;;26.64;39.08
82476;BME280;72099;43.176;76.872;2023-08-12T08:09:48;89375.53;;;26.65;38.42
82476;BME280;72099;43.176;76.872;2023-08-12T08:12:51;89369.56;;;26.61;38.49
82476;BME280;72099;43.176;76.872;2023-08-12T08:15:52;89367.75;;;26.58;38.45
82476;BME280;72099;43.176;76.872;2023-08-12T08:18:52;89364.91;;;26.52;38.30
82476;BME280;72099;43.176;76.872;2023-08-12T08:21:53;89372.69;;;26.50;37.69
82476;BME280;72099;43.176;76.872;2023-08-12T08:24:54;89370.91;;;26.47;38.50
82476;BME280;72099;43.176;76.872;2023-08-12T08:27:55;89378.69;;;26.45;38.49
82476;BME280;72099;43.176;76.872;2023-08-12T08:30:55;89392.94;;;26.45;38.65
82476;BME280;72099;43.176;76.872;2023-08-12T08:33:56;89363.94;;;26.19;38.85
82476;BME280;72099;43.176;76.872;2023-08-12T08:36:57;89403.41;;;26.43;38.63
82476;BME280;72099;43.176;76.872;2023-08-12T08:39:57;89412.25;;;26.44;38.89
82476;BME280;72099;43.176;76.872;2023-08-12T08:43:02;89421.09;;;26.44;39.04
82476;BME280;72099;43.176;76.872;2023-08-12T08:46:05;89421.66;;;26.39;39.48
82476;BME280;72099;43.176;76.872;2023-08-12T08:49:06;89411.03;;;26.36;39.78
82476;BME280;72099;43.176;76.872;2023-08-12T08:52:09;89418.97;;;26.39;39.67
82476;BME280;72099;43.176;76.872;2023-08-12T08:55:11;89424.81;;;26.38;39.76
82476;BME280;72099;43.176;76.872;2023-08-12T08:58:12;89434.09;;;26.37;39.94
82476;BME280;72099;43.176;76.872;2023-08-12T09:01:15;89434.53;;;26.35;40.09
82476;BME280;72099;43.176;76.872;2023-08-12T09:04:20;89436.91;;;26.33;40.23
82476;BME280;72099;43.176;76.872;2023-08-12T09:07:22;89433.94;;;26.31;40.84
82476;BME280;72099;43.176;76.872;2023-08-12T09:10:26;89442.00;;;26.31;40.88
82476;BME280;72099;43.176;76.872;2023-08-12T09:13:27;89457.13;;;26.29;41.16
82476;BME280;72099;43.176;76.872;2023-08-12T09:16:29;89470.28;;;26.27;41.44
82476;BME280;72099;43.176;76.872;2023-08-12T09:19:29;89487.38;;;26.24;41.88
82476;BME280;72099;43.176;76.872;2023-08-12T09:22:30;89497.84;;;26.22;42.27
82476;BME280;72099;43.176;76.872;2023-08-12T09:25:31;89513.72;;;26.20;42.36
82476;BME280;72099;43.176;76.872;2023-08-12T09:28:32;89519.22;;;26.16;42.96
82476;BME280;72099;43.176;76.872;2023-08-12T09:31:33;89517.72;;;26.15;43.28
82476;BME280;72099;43.176;76.872;2023-08-12T09:34:34;89525.81;;;26.15;43.69
82476;BME280;72099;43.176;76.872;2023-08-12T09:37:35;89528.97;;;26.13;44.13
82476;BME280;72099;43.176;76.872;2023-08-12T09:40:36;89521.75;;;26.10;44.68
82476;BME280;72099;43.176;76.872;2023-08-12T09:43:41;89520.41;;;26.06;44.64
82476;BME280;72099;43.176;76.872;2023-08-12T09:46:43;89514.88;;;26.09;45.19
82476;BME280;72099;43.176;76.872;2023-08-12T09:49:44;89507.97;;;26.08;45.40
82476;BME280;72099;43.176;76.872;2023-08-12T09:52:45;89518.00;;;26.08;45.69
82476;BME280;72099;43.176;76.872;2023-08-12T09:55:47;89510.47;;;26.03;45.95
82476;BME280;72099;43.176;76.872;2023-08-12T09:58:50;89520.06;;;26.04;46.05
82476;BME280;72099;43.176;76.872;2023-08-12T10:01:52;89511.69;;;26.02;45.86
82476;BME280;72099;43.176;76.872;2023-08-12T10:04:56;89506.44;;;25.98;46.18
82476;BME280;72099;43.176;76.872;2023-08-12T10:07:57;89504.94;;;25.97;46.05
82476;BME280;72099;43.176;76.872;2023-08-12T10:10:59;89494.59;;;25.96;46.13
82476;BME280;72099;43.176;76.872;2023-08-12T10:14:00;89494.28;;;25.94;46.42
82476;BME280;72099;43.176;76.872;2023-08-12T10:17:02;89520.94;;;25.92;46.66
82476;BME280;72099;43.176;76.872;2023-08-12T10:20:08;89514.91;;;25.87;46.89
82476;BME280;72099;43.176;76.872;2023-08-12T10:23:14;89521.94;;;25.85;47.29
82476;BME280;72099;43.176;76.872;2023-08-12T10:26:16;89549.63;;;25.85;47.15
82476;BME280;72099;43.176;76.872;2023-08-12T10:29:18;89548.25;;;25.81;47.59
82476;BME280;72099;43.176;76.872;2023-08-12T10:32:19;89536.22;;;25.73;47.76
82476;BME280;72099;43.176;76.872;2023-08-12T10:35:20;89533.22;;;25.71;47.86
82476;BME280;72099;43.176;76.872;2023-08-12T10:38:21;89543.56;;;25.72;47.73
82476;BME280;72099;43.176;76.872;2023-08-12T10:41:24;89555.53;;;25.71;48.01
82476;BME280;72099;43.176;76.872;2023-08-12T10:44:50;89569.75;;;25.72;48.14
82476;BME280;72099;43.176;76.872;2023-08-12T10:48:17;89569.00;;;25.71;48.15
82476;BME280;72099;43.176;76.872;2023-08-12T10:54:39;89592.25;;;25.65;47.83
82476;BME280;72099;43.176;76.872;2023-08-12T10:57:40;89603.03;;;25.65;47.80
82476;BME280;72099;43.176;76.872;2023-08-12T11:00:41;89639.69;;;25.63;47.92
82476;BME280;72099;43.176;76.872;2023-08-12T11:03:43;89633.03;;;25.54;48.12
82476;BME280;72099;43.176;76.872;2023-08-12T11:06:45;89628.41;;;25.55;48.18
82476;BME280;72099;43.176;76.872;2023-08-12T11:09:52;89648.47;;;25.54;48.34
82476;BME280;72099;43.176;76.872;2023-08-12T11:12:57;89676.56;;;25.53;48.19
82476;BME280;72099;43.176;76.872;2023-08-12T11:16:08;89664.72;;;25.50;48.41
82476;BME280;72099;43.176;76.872;2023-08-12T11:19:10;89667.41;;;25.50;48.15
82476;BME280;72099;43.176;76.872;2023-08-12T11:22:11;89678.63;;;25.49;47.69
82476;BME280;72099;43.176;76.872;2023-08-12T11:25:14;89666.34;;;25.48;48.14
82476;BME280;72099;43.176;76.872;2023-08-12T11:28:15;89654.63;;;25.42;47.95
82476;BME280;72099;43.176;76.872;2023-08-12T11:31:16;89647.63;;;25.44;47.94
82476;BME280;72099;43.176;76.872;2023-08-12T11:34:17;89662.72;;;25.42;47.89
82476;BME280;72099;43.176;76.872;2023-08-12T11:37:18;89680.50;;;25.39;47.82
82476;BME280;72099;43.176;76.872;2023-08-12T11:40:19;89685.53;;;25.37;47.70
82476;BME280;72099;43.176;76.872;2023-08-12T11:43:21;89700.19;;;25.36;47.76
82476;BME280;72099;43.176;76.872;2023-08-12T11:46:23;89712.13;;;25.35;47.47
82476;BME280;72099;43.176;76.872;2023-08-12T11:49:25;89716.47;;;25.33;47.46
82476;BME280;72099;43.176;76.872;2023-08-12T11:52:26;89738.44;;;25.31;47.60
82476;BME280;72099;43.176;76.872;2023-08-12T11:55:27;89750.38;;;25.30;47.39
82476;BME280;72099;43.176;76.872;2023-08-12T11:58:36;89742.53;;;25.23;47.62
82476;BME280;72099;43.176;76.872;2023-08-12T12:01:36;89772.78;;;25.27;47.43
82476;BME280;72099;43.176;76.872;2023-08-12T12:04:37;89788.59;;;25.25;47.38
82476;BME280;72099;43.176;76.872;2023-08-12T12:07:38;89801.75;;;25.23;47.30
82476;BME280;72099;43.176;76.872;2023-08-12T12:10:39;89799.91;;;25.20;47.51
82476;BME280;72099;43.176;76.872;2023-08-12T12:13:40;89822.63;;;25.19;47.48
82476;BME280;72099;43.176;76.872;2023-08-12T12:16:48;89817.25;;;25.19;47.69
82476;BME280;72099;43.176;76.872;2023-08-12T12:19:58;89800.53;;;25.11;47.51
82476;BME280;72099;43.176;76.872;2023-08-12T12:23:05;89830.06;;;25.15;47.23
82476;BME280;72099;43.176;76.872;2023-08-12T12:26:06;89789.34;;;25.13;47.62
82476;BME280;72099;43.176;76.872;2023-08-12T12:29:10;89803.66;;;25.10;47.67
82476;BME280;72099;43.176;76.872;2023-08-12T12:32:14;89807.56;;;25.09;47.94
82476;BME280;72099;43.176;76.872;2023-08-12T12:35:15;89806.03;;;25.08;48.05
82476;BME280;72099;43.176;76.872;2023-08-12T12:38:16;89795.59;;;25.10;48.30
82476;BME280;72099;43.176;76.872;2023-08-12T12:41:17;89798.28;;;25.10;48.29
82476;BME280;72099;43.176;76.872;2023-08-12T12:44:17;89791.41;;;25.09;48.21
82476;BME280;72099;43.176;76.872;2023-08-12T12:47:19;89795.28;;;25.08;48.12
82476;BME280;72099;43.176;76.872;2023-08-12T12:50:19;89797.22;;;25.07;48.22
82476;BME280;72099;43.176;76.872;2023-08-12T12:53:20;89794.22;;;25.05;48.65
82476;BME280;72099;43.176;76.872;2023-08-12T12:56:21;89792.25;;;25.06;48.57
82476;BME280;72099;43.176;76.872;2023-08-12T12:59:22;89796.16;;;25.05;48.60
82476;BME280;72099;43.176;76.872;2023-08-12T13:02:23;89793.13;;;25.03;48.46
82476;BME280;72099;43.176;76.872;2023-08-12T13:05:24;89807.03;;;25.01;48.64
82476;BME280;72099;43.176;76.872;2023-08-12T13:08:25;89823.91;;;25.02;48.44
82476;BME280;72099;43.176;76.872;2023-08-12T13:11:26;89850.44;;;24.99;48.46
82476;BME280;72099;43.176;76.872;2023-08-12T13:14:26;89878.97;;;24.97;48.50
82476;BME280;72099;43.176;76.872;2023-08-12T13:17:29;89861.31;;;24.96;48.34
82476;BME280;72099;43.176;76.872;2023-08-12T13:20:30;89876.72;;;24.95;48.26
82476;BME280;72099;43.176;76.872;2023-08-12T13:23:30;89877.16;;;24.94;48.28
82476;BME280;72099;43.176;76.872;2023-08-12T13:26:31;89888.00;;;24.90;48.19
82476;BME280;72099;43.176;76.872;2023-08-12T13:29:32;89886.81;;;24.91;48.26
82476;BME280;72099;43.176;76.872;2023-08-12T13:32:32;89894.25;;;24.87;48.04
82476;BME280;72099;43.176;76.872;2023-08-12T13:35:33;89895.00;;;24.88;48.25
82476;BME280;72099;43.176;76.872;2023-08-12T13:38:34;89924.66;;;24.84;48.01
82476;BME280;72099;43.176;76.872;2023-08-12T13:41:35;89927.38;;;24.84;48.27
82476;BME280;72099;43.176;76.872;2023-08-12T13:44:35;89927.78;;;24.83;48.25
82476;BME280;72099;43.176;76.872;2023-08-12T13:47:37;89939.75;;;24.82;48.23
82476;BME280;72099;43.176;76.872;2023-08-12T13:50:37;89947.91;;;24.78;47.79
82476;BME280;72099;43.176;76.872;2023-08-12T13:53:38;89937.56;;;24.77;47.82
82476;BME280;72099;43.176;76.872;2023-08-12T13:56:39;89927.31;;;24.71;47.97
82476;BME280;72099;43.176;76.872;2023-08-12T13:59:40;89927.63;;;24.74;47.93
82476;BME280;72099;43.176;76.872;2023-08-12T14:02:44;89928.50;;;24.70;47.81
82476;BME280;72099;43.176;76.872;2023-08-12T14:05:45;89902.88;;;24.66;47.71
82476;BME280;72099;43.176;76.872;2023-08-12T14:08:46;89917.19;;;24.63;47.70
82476;BME280;72099;43.176;76.872;2023-08-12T14:11:46;89919.19;;;24.59;47.61
82476;BME280;72099;43.176;76.872;2023-08-12T14:14:47;89919.28;;;24.55;47.23
82476;BME280;72099;43.176;76.872;2023-08-12T14:17:48;89925.53;;;24.52;46.99
82476;BME280;72099;43.176;76.872;2023-08-12T14:20:49;89927.88;;;24.50;46.92
82476;BME280;72099;43.176;76.872;2023-08-12T14:23:50;89932.16;;;24.48;46.60
82476;BME280;72099;43.176;76.872;2023-08-12T14:26:51;89938.69;;;24.47;46.52
82476;BME280;72099;43.176;76.872;2023-08-12T14:29:51;89942.56;;;24.46;46.42
82476;BME280;72099;43.176;76.872;2023-08-12T14:32:53;89940.72;;;24.42;46.60
82476;BME280;72099;43.176;76.872;2023-08-12T14:35:57;89930.41;;;24.41;46.06
82476;BME280;72099;43.176;76.872;2023-08-12T14:38:57;89934.38;;;24.36;45.88
82476;BME280;72099;43.176;76.872;2023-08-12T14:41:58;89944.75;;;24.34;45.65
82476;BME280;72099;43.176;76.872;2023-08-12T14:44:59;89955.19;;;24.32;45.49
82476;BME280;72099;43.176;76.872;2023-08-12T14:48:00;89956.84;;;24.26;45.48
82476;BME280;72099;43.176;76.872;2023-08-12T14:51:01;89961.63;;;24.19;45.81
82476;BME280;72099;43.176;76.872;2023-08-12T14:54:01;89965.31;;;24.08;45.59
82476;BME280;72099;43.176;76.872;2023-08-12T14:57:02;89975.56;;;23.97;45.81
82476;BME280;72099;43.176;76.872;2023-08-12T15:00:03;89982.03;;;23.83;45.98
82476;BME280;72099;43.176;76.872;2023-08-12T15:03:07;89986.09;;;23.72;46.11
82476;BME280;72099;43.176;76.872;2023-08-12T15:06:07;89993.13;;;23.66;46.38
82476;BME280;72099;43.176;76.872;2023-08-12T15:09:09;89980.31;;;23.53;46.45
82476;BME280;72099;43.176;76.872;2023-08-12T15:12:09;89976.28;;;23.45;46.75
82476;BME280;72099;43.176;76.872;2023-08-12T15:15:10;89966.09;;;23.37;47.01
82476;BME280;72099;43.176;76.872;2023-08-12T15:18:12;89968.34;;;23.38;47.19
82476;BME280;72099;43.176;76.872;2023-08-12T15:21:13;89971.88;;;23.35;47.21
82476;BME280;72099;43.176;76.872;2023-08-12T15:24:14;89958.00;;;23.20;47.46
82476;BME280;72099;43.176;76.872;2023-08-12T15:27:15;89972.00;;;23.28;48.07
82476;BME280;72099;43.176;76.872;2023-08-12T15:30:15;89973.53;;;23.29;48.45
82476;BME280;72099;43.176;76.872;2023-08-12T15:33:16;89982.28;;;23.33;48.23
82476;BME280;72099;43.176;76.872;2023-08-12T15:36:17;89969.53;;;23.37;48.30
82476;BME280;72099;43.176;76.872;2023-08-12T15:39:18;89949.16;;;23.40;48.46
82476;BME280;72099;43.176;76.872;2023-08-12T15:42:19;89960.19;;;23.45;49.12
82476;BME280;72099;43.176;76.872;2023-08-12T15:45:19;89958.41;;;23.55;49.00
82476;BME280;72099;43.176;76.872;2023-08-12T15:48:20;89953.34;;;23.61;48.79
82476;BME280;72099;43.176;76.872;2023-08-12T15:51:21;89942.09;;;23.66;49.09
82476;BME280;72099;43.176;76.872;2023-08-12T15:54:22;89938.59;;;23.69;48.73